createdAt,value
2022-11-22T00:00:00.000Z,5.02
2022-11-22T00:15:00.000Z,3.48
2022-11-22T00:30:00.000Z,2.99
2022-11-22T00:45:00.000Z,3.04
2022-11-22T01:00:00.000Z,3.15
2022-11-22T01:15:00.000Z,3.12
2022-11-22T01:30:00.000Z,2.94
2022-11-22T01:45:00.000Z,2.96
2022-11-22T02:00:00.000Z,2.15
2022-11-22T02:15:00.000Z,3.18
2022-11-22T02:30:00.000Z,3.65
2022-11-22T02:45:00.000Z,3.38
2022-11-22T03:15:00.000Z,3.71
2022-11-22T03:15:00.000Z,3.62
2022-11-22T03:30:00.000Z,3.78
2022-11-22T03:45:00.000Z,5.93
2022-11-22T04:00:00.000Z,4.33
2022-11-22T04:15:00.000Z,3.82
2022-11-22T04:30:00.000Z,4.81
2022-11-22T04:45:00.000Z,5.72
2022-11-22T05:00:00.000Z,6.14
2022-11-22T05:15:00.000Z,6.76
2022-11-22T05:30:00.000Z,6.81
2022-11-22T05:45:00.000Z,6.92
2022-11-22T06:00:00.000Z,7.35
2022-11-22T06:15:00.000Z,14.66
2022-11-22T06:30:00.000Z,11.2
2022-11-22T06:45:00.000Z,10.29
2022-11-22T07:00:00.000Z,11.61
2022-11-22T07:15:00.000Z,8.67
2022-11-22T07:30:00.000Z,9.52
2022-11-22T07:45:00.000Z,8.07
2022-11-22T08:00:00.000Z,7.33
2022-11-22T08:15:00.000Z,7.64
2022-11-22T08:30:00.000Z,7.99
2022-11-22T08:45:00.000Z,7.47
2022-11-22T09:00:00.000Z,8.62
2022-11-22T09:15:00.000Z,10.25
2022-11-22T09:30:00.000Z,7.22
2022-11-22T09:45:00.000Z,6.36
2022-11-22T10:00:00.000Z,10.32
2022-11-22T10:15:00.000Z,9.92
2022-11-22T10:30:00.000Z,10.25
2022-11-22T10:45:00.000Z,8.26
2022-11-22T11:00:00.000Z,8.91
2022-11-22T11:15:00.000Z,12.13
2022-11-22T11:30:00.000Z,13.81
2022-11-22T11:45:00.000Z,9.44
2022-11-22T12:15:00.000Z,5
2022-11-22T12:15:00.000Z,5.79
2022-11-22T12:30:00.000Z,4.69
2022-11-22T12:45:00.000Z,3.27
2022-11-22T13:00:00.000Z,2.46
2022-11-22T13:15:00.000Z,4.27
2022-11-22T13:45:00.000Z,3
2022-11-22T13:45:00.000Z,3.78
2022-11-22T14:00:00.000Z,4.65
2022-11-22T14:15:00.000Z,4.56
2022-11-22T14:30:00.000Z,4.26
2022-11-22T14:45:00.000Z,15.27
2022-11-22T15:45:00.000Z,10.74
2022-11-22T16:00:00.000Z,5.38
2022-11-22T16:15:00.000Z,5.86
2022-11-22T16:30:00.000Z,6.29
2022-11-22T16:45:00.000Z,6.32
2022-11-22T17:00:00.000Z,9.22
2022-11-22T17:15:00.000Z,7.4
2022-11-22T17:30:00.000Z,7.87
2022-11-22T17:45:00.000Z,5.32
2022-11-22T18:00:00.000Z,8.35
2022-11-22T18:15:00.000Z,8.08
2022-11-22T18:30:00.000Z,7.71
2022-11-22T18:45:00.000Z,5.67
2022-11-22T19:00:00.000Z,5.51
2022-11-22T19:15:00.000Z,6.92
2022-11-22T19:30:00.000Z,7.12
2022-11-22T19:45:00.000Z,6.73
2022-11-22T20:00:00.000Z,6.88
2022-11-22T20:15:00.000Z,5.84
2022-11-22T20:30:00.000Z,5.13
2022-11-22T20:45:00.000Z,5.29
2022-11-22T21:00:00.000Z,6.21
2022-11-22T21:15:00.000Z,6.65
2022-11-22T21:30:00.000Z,5.42
2022-11-22T21:45:00.000Z,4.98
2022-11-22T22:00:00.000Z,4.99
2022-11-22T22:15:00.000Z,4.27
2022-11-22T22:30:00.000Z,3.69
2022-11-22T22:45:00.000Z,3.42
2022-11-22T23:00:00.000Z,3.28
2022-11-22T23:15:00.000Z,3.27
2022-11-22T23:30:00.000Z,3.38
2022-11-22T23:45:00.000Z,3.14
